Terminal Aerodrome Forecast
Issued by NWS Missoula, MT

Home | Current Version | Previous Version | Text Only | Print | Product List | Glossary On
Versions: 1 2 3 4 5 6 7 8 9 10 11 12 13 14 15 16 17 18
555
FTUS45 KMSO 310312 AAA
TAFGPI
TAF AMD
KGPI 310312Z 3103/3124 11005KT P6SM SCT060 BKN110
     FM310800 02010G21KT P6SM SKC
     FM311200 01007KT P6SM SCT150=

USA.gov is the U.S. government's official web portal to all federal, state and local government web resources and services.